createdAt,value
2023-02-19T00:00:55.896Z,97733.44
2023-02-19T00:03:22.392Z,97726.09
2023-02-19T00:05:48.867Z,97723.00
2023-02-19T00:08:15.370Z,97726.41
2023-02-19T00:10:41.836Z,97722.81
2023-02-19T00:13:08.396Z,97719.75
2023-02-19T00:15:35.527Z,97731.63
2023-02-19T00:18:02.028Z,97736.88
2023-02-19T00:20:28.513Z,97730.88
2023-02-19T00:22:54.916Z,97730.88
2023-02-19T00:25:21.363Z,97720.03
2023-02-19T00:27:47.820Z,97721.31
2023-02-19T00:30:14.313Z,97721.94
2023-02-19T00:32:40.899Z,97726.72
2023-02-19T00:35:10.657Z,97726.84
2023-02-19T00:37:37.165Z,97734.28
2023-02-19T00:40:03.680Z,97736.63
2023-02-19T00:42:30.111Z,97744.28
2023-02-19T00:44:56.600Z,97734.47
2023-02-19T00:47:23.121Z,97744.28
2023-02-19T00:49:49.549Z,97743.84
2023-02-19T00:52:16.038Z,97753.41
2023-02-19T00:54:42.450Z,97746.22
2023-02-19T00:57:08.983Z,97737.91
2023-02-19T00:59:36.841Z,97741.09
2023-02-19T01:02:03.706Z,97730.97
2023-02-19T01:04:30.383Z,97736.94
2023-02-19T01:06:56.879Z,97718.50
2023-02-19T01:09:23.332Z,97716.19
2023-02-19T01:11:49.848Z,97703.94
2023-02-19T01:14:16.393Z,97714.16
2023-02-19T01:16:42.915Z,97695.41
2023-02-19T01:19:09.510Z,97728.13
2023-02-19T01:21:35.965Z,97701.59
2023-02-19T01:24:03.142Z,97708.53
2023-02-19T01:26:31.183Z,97709.59
2023-02-19T01:28:58.610Z,97722.13
2023-02-19T01:31:25.255Z,97706.16
2023-02-19T01:33:56.203Z,97695.75
2023-02-19T01:36:23.124Z,97695.13
2023-02-19T01:38:49.823Z,97697.56
2023-02-19T01:41:17.868Z,97692.47
2023-02-19T01:43:58.534Z,97699.03
2023-02-19T01:46:29.437Z,97696.59
2023-02-19T01:48:57.438Z,97692.78
2023-02-19T01:51:24.040Z,97687.66
2023-02-19T01:53:53.900Z,97694.16
2023-02-19T01:56:21.154Z,97691.81
2023-02-19T01:58:48.705Z,97684.50
2023-02-19T02:01:15.308Z,97679.13
2023-02-19T02:03:44.871Z,97671.69
2023-02-19T02:06:11.288Z,97682.09
2023-02-19T02:08:56.593Z,97679.88
2023-02-19T02:11:23.343Z,97687.56
2023-02-19T02:13:51.043Z,97700.00
2023-02-19T02:16:25.652Z,97692.88
2023-02-19T02:19:07.468Z,97687.34
2023-02-19T02:21:38.297Z,97685.09
2023-02-19T02:24:25.073Z,97688.28
2023-02-19T02:27:06.969Z,97696.78
2023-02-19T02:29:33.512Z,97692.28
2023-02-19T02:32:29.468Z,97698.31
2023-02-19T02:35:04.075Z,97680.53
2023-02-19T02:37:33.279Z,97686.31
2023-02-19T02:40:00.499Z,97679.97
2023-02-19T02:42:30.124Z,97669.91
2023-02-19T02:45:37.364Z,97663.69
2023-02-19T02:48:15.982Z,97663.81
2023-02-19T02:50:46.068Z,97667.84
2023-02-19T02:53:38.652Z,97663.78
2023-02-19T02:56:05.932Z,97668.47
2023-02-19T02:58:35.212Z,97667.00
2023-02-19T03:01:25.763Z,97660.50
2023-02-19T03:03:55.413Z,97658.78
2023-02-19T03:06:24.210Z,97653.13
2023-02-19T03:08:57.441Z,97664.41
2023-02-19T03:11:42.716Z,97664.03
2023-02-19T03:14:33.035Z,97659.28
2023-02-19T03:17:21.264Z,97658.03
2023-02-19T03:19:50.623Z,97654.72
2023-02-19T03:22:17.051Z,97657.16
2023-02-19T03:25:06.148Z,97659.50
2023-02-19T03:27:34.469Z,97660.59
2023-02-19T03:30:03.056Z,97648.44
2023-02-19T03:32:30.156Z,97654.53
2023-02-19T03:34:59.442Z,97657.28
2023-02-19T03:37:32.495Z,97669.56
2023-02-19T03:40:00.416Z,97659.09
2023-02-19T03:42:35.548Z,97656.88
2023-02-19T03:45:10.164Z,97668.38
2023-02-19T03:47:44.005Z,97661.47
2023-02-19T03:50:16.806Z,97661.25
2023-02-19T03:52:56.032Z,97665.84
2023-02-19T03:55:31.651Z,97669.78
2023-02-19T03:58:05.886Z,97668.81
2023-02-19T04:00:39.275Z,97661.91
2023-02-19T04:03:09.859Z,97664.25
2023-02-19T04:05:39.779Z,97667.66
2023-02-19T04:08:10.103Z,97662.13
2023-02-19T04:10:42.105Z,97668.72
2023-02-19T04:13:35.221Z,97660.53
2023-02-19T04:16:03.909Z,97657.44
2023-02-19T04:18:32.725Z,97661.06
2023-02-19T04:21:00.397Z,97652.66
2023-02-19T04:23:29.275Z,97646.56
2023-02-19T04:25:57.813Z,97647.22
2023-02-19T04:28:24.343Z,97649.66
2023-02-19T04:30:50.931Z,97641.91
2023-02-19T04:33:17.477Z,97642.31
2023-02-19T04:35:43.903Z,97637.41
2023-02-19T04:38:10.472Z,97633.38
2023-02-19T04:40:36.900Z,97634.97
2023-02-19T04:43:03.343Z,97635.59
2023-02-19T04:45:29.808Z,97641.88
2023-02-19T04:47:57.880Z,97650.41
2023-02-19T04:50:24.545Z,97640.81
2023-02-19T04:52:51.016Z,97638.91
2023-02-19T04:55:17.785Z,97643.81
2023-02-19T04:57:44.318Z,97636.34
2023-02-19T05:00:13.389Z,97640.06
2023-02-19T05:02:39.835Z,97633.22
2023-02-19T05:05:06.348Z,97634.44
2023-02-19T05:07:33.232Z,97650.63
2023-02-19T05:09:59.826Z,97640.63
2023-02-19T05:12:26.662Z,97635.94
2023-02-19T05:14:53.106Z,97635.19
2023-02-19T05:17:19.585Z,97631.34
2023-02-19T05:19:46.028Z,97637.00
2023-02-19T05:22:12.473Z,97633.91
2023-02-19T05:24:38.966Z,97623.66
2023-02-19T05:27:05.426Z,97629.41
2023-02-19T05:29:32.264Z,97626.19
2023-02-19T05:31:58.921Z,97631.41
2023-02-19T05:34:25.419Z,97625.22
2023-02-19T05:36:51.969Z,97625.88
2023-02-19T05:39:18.464Z,97620.06
2023-02-19T05:41:44.908Z,97621.38
2023-02-19T05:44:11.655Z,97615.78
2023-02-19T05:46:38.311Z,97620.91
2023-02-19T05:49:04.844Z,97631.56
2023-02-19T05:51:31.442Z,97632.72
2023-02-19T05:53:58.109Z,97639.28
2023-02-19T05:56:35.194Z,97639.97
2023-02-19T05:59:03.972Z,97638.59
2023-02-19T06:01:30.676Z,97630.44
2023-02-19T06:03:58.048Z,97648.13
2023-02-19T06:06:25.206Z,97651.13
2023-02-19T06:08:52.015Z,97643.13
2023-02-19T06:11:18.799Z,97644.16
2023-02-19T06:13:45.496Z,97650.03
2023-02-19T06:16:12.165Z,97639.38
2023-02-19T06:18:40.617Z,97656.00
2023-02-19T06:21:08.687Z,97663.38
2023-02-19T06:23:35.432Z,97651.75
2023-02-19T06:26:06.178Z,97656.56
2023-02-19T06:28:32.639Z,97642.13
2023-02-19T06:30:59.251Z,97652.13
2023-02-19T06:33:26.913Z,97655.22
2023-02-19T06:35:53.513Z,97648.47
2023-02-19T06:38:23.083Z,97640.06
2023-02-19T06:40:49.543Z,97637.00
2023-02-19T06:43:16.045Z,97628.75
2023-02-19T06:45:42.485Z,97638.72
2023-02-19T06:48:08.931Z,97649.22
2023-02-19T06:50:35.469Z,97636.38
2023-02-19T06:53:02.010Z,97632.75
2023-02-19T06:55:28.502Z,97632.44
2023-02-19T06:57:54.924Z,97645.03
2023-02-19T07:00:21.495Z,97649.69
2023-02-19T07:02:48.144Z,97654.31
2023-02-19T07:05:14.664Z,97652.66
2023-02-19T07:07:41.188Z,97656.59
2023-02-19T07:10:07.751Z,97649.69
2023-02-19T07:12:34.226Z,97655.63
2023-02-19T07:15:00.679Z,97658.41
2023-02-19T07:17:27.169Z,97656.81
2023-02-19T07:19:53.623Z,97659.47
2023-02-19T07:22:20.138Z,97659.25
2023-02-19T07:24:48.120Z,97669.47
2023-02-19T07:27:15.071Z,97669.47
2023-02-19T07:29:41.575Z,97658.06
2023-02-19T07:32:08.009Z,97647.88
2023-02-19T07:34:34.493Z,97644.84
2023-02-19T07:37:01.105Z,97650.06
2023-02-19T07:39:27.888Z,97652.47
2023-02-19T07:41:54.350Z,97635.22
2023-02-19T07:44:27.131Z,97653.47
2023-02-19T07:46:53.604Z,97634.28
2023-02-19T07:49:20.082Z,97653.69
2023-02-19T07:51:46.491Z,97652.97
2023-02-19T07:54:13.595Z,97655.63
2023-02-19T07:56:40.058Z,97647.16
2023-02-19T07:59:06.558Z,97644.72
2023-02-19T08:01:51.556Z,97656.50
2023-02-19T08:04:18.003Z,97648.72
2023-02-19T08:06:44.486Z,97634.31
2023-02-19T08:09:11.060Z,97624.84
2023-02-19T08:11:56.066Z,97631.66
2023-02-19T08:14:28.950Z,97625.91
2023-02-19T08:16:55.741Z,97629.25
2023-02-19T08:19:22.350Z,97628.34
2023-02-19T08:21:48.960Z,97631.47
2023-02-19T08:24:15.395Z,97639.31
2023-02-19T08:26:41.867Z,97636.06
2023-02-19T08:29:08.330Z,97628.72
2023-02-19T08:31:35.390Z,97618.88
2023-02-19T08:34:01.908Z,97629.56
2023-02-19T08:36:28.419Z,97631.09
2023-02-19T08:38:54.860Z,97631.41
2023-02-19T08:41:21.436Z,97630.97
2023-02-19T08:43:47.915Z,97632.69
2023-02-19T08:46:14.616Z,97629.16
2023-02-19T08:48:41.290Z,97624.44
2023-02-19T08:51:09.996Z,97627.22
2023-02-19T08:53:37.787Z,97626.06
2023-02-19T08:56:11.020Z,97633.09
2023-02-19T08:58:38.056Z,97639.34
2023-02-19T09:01:09.448Z,97629.56
2023-02-19T09:03:36.620Z,97613.19
2023-02-19T09:06:03.328Z,97619.38
2023-02-19T09:08:29.837Z,97614.03
2023-02-19T09:11:04.508Z,97616.13
2023-02-19T09:13:30.993Z,97615.13
2023-02-19T09:15:57.469Z,97625.19
2023-02-19T09:18:25.245Z,97619.78
2023-02-19T09:20:51.707Z,97633.06
2023-02-19T09:23:18.143Z,97628.94
2023-02-19T09:25:44.629Z,97623.53
2023-02-19T09:28:11.100Z,97621.00
2023-02-19T09:30:37.595Z,97625.00
2023-02-19T09:33:05.455Z,97615.38
2023-02-19T09:35:31.908Z,97615.88
2023-02-19T09:37:59.688Z,97615.38
2023-02-19T09:40:26.183Z,97617.19
2023-02-19T09:42:52.679Z,97603.63
2023-02-19T09:45:22.340Z,97605.44
2023-02-19T09:47:49.677Z,97597.88
2023-02-19T09:50:20.394Z,97609.97
2023-02-19T09:52:52.891Z,97597.50
2023-02-19T09:55:22.428Z,97596.50
2023-02-19T09:57:51.255Z,97589.09
2023-02-19T10:00:22.377Z,97604.66
2023-02-19T10:02:53.764Z,97607.59
2023-02-19T10:05:21.309Z,97607.38
2023-02-19T10:07:49.164Z,97594.84
2023-02-19T10:10:15.589Z,97600.59
2023-02-19T10:12:50.541Z,97603.47
2023-02-19T10:15:19.015Z,97598.22
2023-02-19T10:17:45.487Z,97597.59
2023-02-19T10:20:17.065Z,97595.78
2023-02-19T10:22:43.888Z,97600.81
2023-02-19T10:25:16.725Z,97602.53
2023-02-19T10:27:43.785Z,97596.75
2023-02-19T10:30:21.106Z,97595.03
2023-02-19T10:33:00.303Z,97597.38
2023-02-19T10:35:26.892Z,97595.97
2023-02-19T10:37:53.723Z,97598.09
2023-02-19T10:40:25.410Z,97597.19
2023-02-19T10:43:01.198Z,97584.69
2023-02-19T10:45:34.026Z,97578.69
2023-02-19T10:48:00.747Z,97572.47
2023-02-19T10:50:37.198Z,97573.09
2023-02-19T10:53:03.663Z,97559.31
2023-02-19T10:55:36.759Z,97564.88
2023-02-19T10:58:25.391Z,97568.78
2023-02-19T11:01:12.463Z,97557.41
2023-02-19T11:03:39.286Z,97545.50
2023-02-19T11:06:08.872Z,97553.31
2023-02-19T11:08:49.541Z,97546.03
2023-02-19T11:11:42.312Z,97557.91
2023-02-19T11:14:15.387Z,97540.25
2023-02-19T11:16:46.947Z,97542.00
2023-02-19T11:19:25.737Z,97546.34
2023-02-19T11:21:52.711Z,97534.63
2023-02-19T11:24:40.531Z,97528.00
2023-02-19T11:27:16.013Z,97531.88
2023-02-19T11:29:42.458Z,97527.53
2023-02-19T11:32:29.638Z,97518.28
2023-02-19T11:35:17.668Z,97513.94
2023-02-19T11:37:58.715Z,97513.88
2023-02-19T11:40:41.004Z,97505.72
2023-02-19T11:43:17.652Z,97504.81
2023-02-19T11:45:51.051Z,97504.25
2023-02-19T11:48:32.502Z,97500.56
2023-02-19T11:51:10.526Z,97498.19
2023-02-19T11:53:42.339Z,97500.50
2023-02-19T11:56:09.338Z,97514.44
2023-02-19T11:58:43.171Z,97507.59
2023-02-19T12:01:12.870Z,97494.03
2023-02-19T12:03:57.558Z,97496.13
2023-02-19T12:06:45.792Z,97497.00
2023-02-19T12:09:12.240Z,97490.34
2023-02-19T12:11:53.596Z,97478.78
2023-02-19T12:14:43.810Z,97497.81
2023-02-19T12:17:29.264Z,97487.94
2023-02-19T12:20:14.198Z,97493.56
2023-02-19T12:22:54.610Z,97495.59
2023-02-19T12:25:24.203Z,97477.69
2023-02-19T12:28:26.247Z,97486.47
2023-02-19T12:30:53.340Z,97489.84
2023-02-19T12:33:21.698Z,97487.16
2023-02-19T12:35:56.163Z,97489.22
2023-02-19T12:38:29.550Z,97493.44
2023-02-19T12:41:02.218Z,97510.38
2023-02-19T12:43:30.812Z,97493.94
2023-02-19T12:46:09.739Z,97507.38
2023-02-19T12:48:39.488Z,97493.25
2023-02-19T12:51:19.858Z,97507.38
2023-02-19T12:53:49.014Z,97487.81
2023-02-19T12:56:26.135Z,97484.44
2023-02-19T12:59:07.332Z,97487.06
2023-02-19T13:01:41.619Z,97499.53
2023-02-19T13:04:23.666Z,97485.75
2023-02-19T13:07:13.521Z,97489.97
2023-02-19T13:09:52.370Z,97507.88
2023-02-19T13:12:29.101Z,97516.41
2023-02-19T13:15:14.157Z,97508.75
2023-02-19T13:17:55.649Z,97510.16
2023-02-19T13:20:22.179Z,97513.44
2023-02-19T13:23:10.421Z,97525.66
2023-02-19T13:25:56.792Z,97524.44
2023-02-19T13:28:23.830Z,97534.56
2023-02-19T13:31:02.422Z,97525.34
2023-02-19T13:33:55.470Z,97527.09
2023-02-19T13:36:29.129Z,97544.03
2023-02-19T13:38:59.617Z,97545.63
2023-02-19T13:41:39.252Z,97546.19
2023-02-19T13:44:17.738Z,97542.16
2023-02-19T13:46:45.555Z,97528.22
2023-02-19T13:49:27.324Z,97533.19
2023-02-19T13:51:55.064Z,97535.13
2023-02-19T13:54:23.596Z,97532.59
2023-02-19T13:56:50.311Z,97550.19
2023-02-19T13:59:25.579Z,97557.78
2023-02-19T14:01:58.159Z,97559.16
2023-02-19T14:04:26.444Z,97564.25
2023-02-19T14:07:05.118Z,97566.75
2023-02-19T14:09:34.496Z,97568.22
2023-02-19T14:12:02.612Z,97562.94
2023-02-19T14:14:32.025Z,97564.66
2023-02-19T14:17:04.436Z,97558.31
2023-02-19T14:19:44.287Z,97564.25
2023-02-19T14:22:30.628Z,97569.66
2023-02-19T14:24:57.721Z,97575.53
2023-02-19T14:27:25.429Z,97580.16
2023-02-19T14:29:52.336Z,97578.28
2023-02-19T14:32:20.106Z,97576.19
2023-02-19T14:34:46.754Z,97581.66
2023-02-19T14:37:18.227Z,97581.78
2023-02-19T14:39:45.288Z,97588.22
2023-02-19T14:42:14.788Z,97582.38
2023-02-19T14:44:47.273Z,97590.94
2023-02-19T14:47:16.192Z,97604.00
2023-02-19T14:49:54.387Z,97600.94
2023-02-19T14:52:43.482Z,97625.88
2023-02-19T14:55:30.269Z,97635.56
2023-02-19T14:57:58.375Z,97639.81
2023-02-19T15:00:25.086Z,97621.22
2023-02-19T15:02:52.254Z,97636.81
2023-02-19T15:05:21.758Z,97643.00
2023-02-19T15:07:48.701Z,97634.53
2023-02-19T15:10:15.646Z,97644.41
2023-02-19T15:12:45.099Z,97666.16
2023-02-19T15:15:25.539Z,97652.50
2023-02-19T15:17:53.194Z,97657.28
2023-02-19T15:20:21.623Z,97653.91
2023-02-19T15:22:48.481Z,97656.50
2023-02-19T15:25:17.742Z,97667.91
2023-02-19T15:27:44.495Z,97669.66
2023-02-19T15:30:28.607Z,97663.75
2023-02-19T15:32:57.436Z,97684.41
2023-02-19T15:35:25.145Z,97673.16
2023-02-19T15:37:52.231Z,97694.00
2023-02-19T15:40:20.495Z,97685.41
2023-02-19T15:42:47.291Z,97695.19
2023-02-19T15:45:25.292Z,97707.00
2023-02-19T15:47:56.190Z,97704.84
2023-02-19T15:50:25.571Z,97716.16
2023-02-19T15:52:59.672Z,97709.97
2023-02-19T15:55:26.250Z,97723.81
2023-02-19T15:57:58.749Z,97723.41
2023-02-19T16:00:51.596Z,97719.44
2023-02-19T16:03:19.883Z,97722.00
2023-02-19T16:05:46.877Z,97727.44
2023-02-19T16:08:20.278Z,97713.94
2023-02-19T16:10:56.859Z,97708.69
2023-02-19T16:13:33.306Z,97723.22
2023-02-19T16:16:08.964Z,97722.13
2023-02-19T16:18:35.633Z,97738.53
2023-02-19T16:21:04.191Z,97743.28
2023-02-19T16:23:31.314Z,97752.72
2023-02-19T16:25:59.812Z,97755.44
2023-02-19T16:28:26.895Z,97767.97
2023-02-19T16:31:00.856Z,97765.22
2023-02-19T16:33:34.598Z,97764.09
2023-02-19T16:36:19.910Z,97774.00
2023-02-19T16:39:04.975Z,97789.16
2023-02-19T16:41:31.479Z,97791.53
2023-02-19T16:43:57.934Z,97789.97
2023-02-19T16:46:24.402Z,97807.09
2023-02-19T16:48:51.324Z,97807.66
2023-02-19T16:51:23.692Z,97818.94
2023-02-19T16:53:50.127Z,97814.06
2023-02-19T16:56:18.583Z,97807.25
2023-02-19T16:58:45.012Z,97818.03
2023-02-19T17:01:11.798Z,97817.38
2023-02-19T17:03:39.340Z,97834.38
2023-02-19T17:06:05.981Z,97843.97
2023-02-19T17:08:33.873Z,97831.63
2023-02-19T17:11:02.177Z,97828.69
2023-02-19T17:13:29.471Z,97837.44
2023-02-19T17:15:56.508Z,97826.63
2023-02-19T17:18:23.030Z,97822.03
2023-02-19T17:20:55.259Z,97833.69
2023-02-19T17:23:23.574Z,97835.72
2023-02-19T17:25:50.901Z,97832.47
2023-02-19T17:28:17.457Z,97841.09
2023-02-19T17:30:43.940Z,97830.81
2023-02-19T17:33:10.450Z,97845.91
2023-02-19T17:35:36.997Z,97829.81
2023-02-19T17:38:09.380Z,97841.44
2023-02-19T17:40:36.286Z,97822.06
2023-02-19T17:43:03.253Z,97806.88
2023-02-19T17:45:29.811Z,97804.69
2023-02-19T17:47:56.361Z,97808.78
2023-02-19T17:50:24.430Z,97803.41
2023-02-19T17:52:50.906Z,97812.41
2023-02-19T17:55:20.816Z,97814.75
2023-02-19T17:57:47.950Z,97813.16
2023-02-19T18:00:15.654Z,97807.31
2023-02-19T18:02:42.428Z,97805.03
2023-02-19T18:05:08.914Z,97807.66
2023-02-19T18:07:36.075Z,97824.59
2023-02-19T18:10:03.189Z,97829.72
2023-02-19T18:12:29.848Z,97832.63
2023-02-19T18:14:57.206Z,97834.66
2023-02-19T18:17:24.366Z,97841.00
2023-02-19T18:19:50.990Z,97834.13
2023-02-19T18:22:17.843Z,97848.84
2023-02-19T18:24:51.246Z,97849.47
2023-02-19T18:27:19.145Z,97846.53
2023-02-19T18:29:55.837Z,97855.56
2023-02-19T18:32:23.595Z,97857.53
2023-02-19T18:34:53.852Z,97859.44
2023-02-19T18:37:20.421Z,97859.75
2023-02-19T18:39:47.111Z,97876.91
2023-02-19T18:42:13.796Z,97869.84
2023-02-19T18:44:40.219Z,97874.16
2023-02-19T18:47:07.418Z,97887.66
2023-02-19T18:49:33.982Z,97904.59
2023-02-19T18:52:01.313Z,97898.13
2023-02-19T18:54:28.680Z,97894.94
2023-02-19T18:56:55.316Z,97903.28
2023-02-19T18:59:21.877Z,97898.00
2023-02-19T19:01:48.599Z,97893.09
2023-02-19T19:04:15.156Z,97892.25
2023-02-19T19:06:41.667Z,97895.00
2023-02-19T19:09:08.509Z,97888.44
2023-02-19T19:11:35.323Z,97898.09
2023-02-19T19:14:01.965Z,97902.44
2023-02-19T19:16:29.110Z,97910.25
2023-02-19T19:18:56.354Z,97918.81
2023-02-19T19:21:23.088Z,97920.38
2023-02-19T19:23:50.077Z,97914.97
2023-02-19T19:26:16.579Z,97930.22
2023-02-19T19:28:46.569Z,97922.00
2023-02-19T19:31:14.317Z,97916.56
2023-02-19T19:33:41.829Z,97919.19
2023-02-19T19:36:09.035Z,97921.19
2023-02-19T19:38:35.479Z,97924.44
2023-02-19T19:41:02.008Z,97924.44
2023-02-19T19:43:28.956Z,97915.59
2023-02-19T19:45:55.976Z,97931.81
2023-02-19T19:48:22.872Z,97939.34
2023-02-19T19:50:49.359Z,97948.44
2023-02-19T19:53:15.832Z,97958.63
2023-02-19T19:55:42.277Z,97981.03
2023-02-19T19:58:08.755Z,97982.28
2023-02-19T20:00:35.223Z,97992.00
2023-02-19T20:03:02.186Z,97990.75
2023-02-19T20:05:28.762Z,97997.41
2023-02-19T20:07:55.180Z,98002.66
2023-02-19T20:10:21.704Z,98005.91
2023-02-19T20:12:48.243Z,98012.09
2023-02-19T20:15:19.203Z,98018.19
2023-02-19T20:17:45.652Z,98011.06
2023-02-19T20:20:12.353Z,98020.97
2023-02-19T20:22:39.365Z,98028.66
2023-02-19T20:25:06.174Z,98023.00
2023-02-19T20:27:32.638Z,98034.34
2023-02-19T20:29:59.148Z,98040.06
2023-02-19T20:32:25.675Z,98032.94
2023-02-19T20:34:52.231Z,98039.97
2023-02-19T20:37:18.664Z,98044.56
2023-02-19T20:39:45.068Z,98041.34
2023-02-19T20:42:11.585Z,98037.09
2023-02-19T20:44:38.075Z,98045.06
2023-02-19T20:47:04.757Z,98033.72
2023-02-19T20:49:31.341Z,98043.03
2023-02-19T20:51:59.750Z,98065.69
2023-02-19T20:54:29.442Z,98066.88
2023-02-19T20:56:57.485Z,98046.50
2023-02-19T20:59:25.280Z,98045.53
2023-02-19T21:01:51.757Z,98039.34
2023-02-19T21:04:18.960Z,98058.78
2023-02-19T21:06:45.794Z,98049.50
2023-02-19T21:09:12.605Z,98053.69
2023-02-19T21:11:39.575Z,98055.84
2023-02-19T21:14:06.112Z,98059.31
2023-02-19T21:16:32.743Z,98059.41
2023-02-19T21:18:59.601Z,98063.88
2023-02-19T21:21:26.430Z,98048.56
2023-02-19T21:23:53.611Z,98051.41
2023-02-19T21:26:20.339Z,98048.22
2023-02-19T21:28:46.782Z,98048.56
2023-02-19T21:31:13.417Z,98046.81
2023-02-19T21:33:39.915Z,98054.66
2023-02-19T21:36:06.559Z,98055.03
2023-02-19T21:38:33.047Z,98054.91
2023-02-19T21:40:59.511Z,98056.66
2023-02-19T21:43:27.948Z,98054.41
2023-02-19T21:45:54.753Z,98061.97
2023-02-19T21:48:21.485Z,98067.41
2023-02-19T21:50:48.018Z,98065.47
2023-02-19T21:53:15.197Z,98056.00
2023-02-19T21:55:56.578Z,98065.41
2023-02-19T21:58:24.520Z,98065.34
2023-02-19T22:00:51.023Z,98065.41
2023-02-19T22:03:17.596Z,98085.53
2023-02-19T22:05:44.061Z,98090.72
2023-02-19T22:08:10.661Z,98082.38
2023-02-19T22:10:39.300Z,98085.16
2023-02-19T22:13:05.738Z,98083.59
2023-02-19T22:15:32.674Z,98085.44
2023-02-19T22:17:59.295Z,98078.84
2023-02-19T22:20:25.730Z,98085.06
2023-02-19T22:22:52.238Z,98107.66
2023-02-19T22:25:20.399Z,98101.81
2023-02-19T22:27:48.890Z,98107.25
2023-02-19T22:30:16.091Z,98106.69
2023-02-19T22:32:42.713Z,98097.59
2023-02-19T22:35:09.209Z,98098.56
2023-02-19T22:37:35.645Z,98098.44
2023-02-19T22:40:02.122Z,98106.97
2023-02-19T22:42:29.352Z,98119.59
2023-02-19T22:44:55.800Z,98109.16
2023-02-19T22:47:22.306Z,98119.47
2023-02-19T22:49:48.804Z,98136.00
2023-02-19T22:52:15.350Z,98137.91
2023-02-19T22:54:41.824Z,98141.13
2023-02-19T22:57:08.261Z,98145.53
2023-02-19T22:59:34.804Z,98149.22
2023-02-19T23:02:01.335Z,98151.34
2023-02-19T23:04:27.844Z,98140.19
2023-02-19T23:06:54.442Z,98163.25
2023-02-19T23:09:22.474Z,98154.44
2023-02-19T23:11:49.020Z,98160.59
2023-02-19T23:14:16.272Z,98168.44
2023-02-19T23:16:42.879Z,98178.66
2023-02-19T23:19:11.524Z,98180.00
2023-02-19T23:21:42.167Z,98173.97
2023-02-19T23:24:09.240Z,98166.53
2023-02-19T23:26:35.883Z,98167.13
2023-02-19T23:29:02.629Z,98169.00
2023-02-19T23:31:29.175Z,98179.16
2023-02-19T23:33:55.720Z,98177.56
2023-02-19T23:36:23.854Z,98175.50
2023-02-19T23:38:50.391Z,98185.97
2023-02-19T23:41:17.666Z,98182.53
2023-02-19T23:43:44.346Z,98177.25
2023-02-19T23:46:14.394Z,98174.50
2023-02-19T23:48:41.176Z,98172.00
2023-02-19T23:51:07.612Z,98185.50
2023-02-19T23:53:34.049Z,98185.97
2023-02-19T23:56:00.563Z,98189.41
2023-02-19T23:58:27.037Z,98188.25
